Time;durP1;ratioP1;P1;durP2;ratioP2;P2;SDS_P1;SDS_P2;PMS_P1;PMS_P2;Temp;Humidity;BMP_temperature;BMP_pressure;BME280_temperature;BME280_humidity;BME280_pressure;Samples;Min_cycle;Max_cycle;Signal;HPM_P1;HPM_P2
2022/04/27 00:01:54;;;;;;;13.23;11.93;;;;;;;7.51;100.00;100496.22;5078770;28;20260;-58
2022/04/27 00:04:20;;;;;;;14.00;12.13;;;;;;;7.45;100.00;100496.41;5074055;28;20168;-59
2022/04/27 00:06:45;;;;;;;13.90;12.50;;;;;;;7.47;100.00;100504.88;5072043;28;20642;-60
2022/04/27 00:09:11;;;;;;;13.03;11.63;;;;;;;7.43;100.00;100493.94;5072612;28;20179;-59
2022/04/27 00:11:37;;;;;;;12.90;11.60;;;;;;;7.35;100.00;100489.06;5073470;28;20227;-58
2022/04/27 00:14:03;;;;;;;15.27;13.23;;;;;;;7.28;100.00;100490.16;5071177;28;20274;-60
2022/04/27 00:16:28;;;;;;;17.73;12.47;;;;;;;7.26;100.00;100491.94;5072217;28;20287;-59
2022/04/27 00:18:54;;;;;;;14.83;11.83;;;;;;;7.20;100.00;100492.16;5078165;28;20194;-59
2022/04/27 00:21:19;;;;;;;13.27;11.73;;;;;;;7.17;100.00;100492.25;5081975;28;20687;-59
2022/04/27 00:23:45;;;;;;;14.80;13.17;;;;;;;7.01;100.00;100489.34;5091997;28;20182;-59
2022/04/27 00:26:10;;;;;;;14.20;12.37;;;;;;;6.97;100.00;100487.81;5092192;28;20228;-59
2022/04/27 00:28:36;;;;;;;13.63;11.67;;;;;;;6.91;100.00;100493.97;5092604;28;20519;-58
2022/04/27 00:31:01;;;;;;;15.53;12.57;;;;;;;6.84;100.00;100497.63;5081263;28;20230;-59
2022/04/27 00:33:27;;;;;;;14.57;13.13;;;;;;;6.80;100.00;100491.75;5091348;28;20256;-61
2022/04/27 00:35:52;;;;;;;14.40;12.90;;;;;;;6.77;100.00;100492.69;5092451;28;20227;-59
2022/04/27 00:38:18;;;;;;;16.47;14.23;;;;;;;6.69;100.00;100486.16;5092133;28;20357;-59
2022/04/27 00:40:44;;;;;;;16.00;13.40;;;;;;;6.54;100.00;100490.03;5082201;28;20221;-58
2022/04/27 00:43:09;;;;;;;19.43;14.40;;;;;;;6.49;100.00;100502.09;5079859;28;20190;-58
2022/04/27 00:45:35;;;;;;;15.17;13.60;;;;;;;6.42;100.00;100496.38;5092045;28;20172;-60
2022/04/27 00:48:00;;;;;;;16.53;13.67;;;;;;;6.32;100.00;100498.34;5085375;28;20618;-60
2022/04/27 00:50:26;;;;;;;17.73;14.33;;;;;;;6.26;100.00;100506.22;5070287;28;20231;-58
2022/04/27 00:52:52;;;;;;;18.47;15.00;;;;;;;6.23;100.00;100503.75;5070678;28;20219;-58
2022/04/27 00:55:17;;;;;;;16.63;13.83;;;;;;;6.11;100.00;100510.06;5070581;28;20180;-58
2022/04/27 00:57:46;;;;;;;17.63;14.93;;;;;;;6.08;100.00;100513.53;5071245;28;20335;-59
2022/04/27 01:00:15;;;;;;;15.93;13.47;;;;;;;6.07;100.00;100514.41;5061262;28;20187;-59
2022/04/27 01:02:42;;;;;;;21.00;15.47;;;;;;;6.01;100.00;100519.69;5093473;28;20175;-59
2022/04/27 01:05:09;;;;;;;20.33;15.83;;;;;;;6.00;100.00;100523.13;5087541;28;20186;-59
2022/04/27 01:07:37;;;;;;;22.63;18.30;;;;;;;5.95;100.00;100528.38;5086532;28;20673;-59
2022/04/27 01:10:02;;;;;;;25.23;17.40;;;;;;;5.81;100.00;100520.25;5087106;28;20254;-58
2022/04/27 01:12:28;;;;;;;19.77;16.27;;;;;;;5.77;100.00;100523.78;5060634;28;20586;-59
2022/04/27 01:14:53;;;;;;;23.20;17.87;;;;;;;5.68;100.00;100527.41;5091753;28;20180;-58
2022/04/27 01:17:21;;;;;;;24.67;18.53;;;;;;;5.58;100.00;100531.06;5091265;28;20183;-59
2022/04/27 01:19:46;;;;;;;21.93;18.10;;;;;;;5.64;100.00;100539.44;5077332;28;20635;-59
2022/04/27 01:22:12;;;;;;;25.83;18.03;;;;;;;5.65;100.00;100530.84;5077189;28;20235;-58
2022/04/27 01:24:37;;;;;;;21.87;17.63;;;;;;;5.57;100.00;100532.81;5071931;28;20188;-59
2022/04/27 01:27:03;;;;;;;22.53;18.60;;;;;;;5.58;100.00;100531.06;5071114;28;20180;-59
2022/04/27 01:29:29;;;;;;;23.53;19.53;;;;;;;5.49;100.00;100532.16;5086843;28;20176;-58
2022/04/27 01:31:54;;;;;;;25.17;18.97;;;;;;;5.45;100.00;100531.41;5075918;28;20314;-58
2022/04/27 01:34:20;;;;;;;27.83;20.27;;;;;;;5.41;100.00;100524.72;5072727;28;20176;-58
2022/04/27 01:36:46;;;;;;;23.93;18.03;;;;;;;5.45;100.00;100528.03;5071072;28;20266;-59
2022/04/27 01:39:11;;;;;;;25.13;19.27;;;;;;;5.46;100.00;100520.31;5087124;28;20274;-59
2022/04/27 01:41:37;;;;;;;22.07;18.33;;;;;;;5.44;100.00;100516.97;5073371;28;20238;-59
2022/04/27 01:44:03;;;;;;;24.43;18.90;;;;;;;5.37;100.00;100524.81;5075088;28;20173;-58
2022/04/27 01:46:29;;;;;;;22.97;19.33;;;;;;;5.43;100.00;100522.13;5092465;28;20272;-57
2022/04/27 01:48:55;;;;;;;25.07;19.83;;;;;;;5.44;100.00;100529.72;5091761;28;20317;-59
2022/04/27 01:54:14;;;;;;;25.50;19.53;;;;;;;5.31;100.00;100528.41;5083069;28;20226;-58
2022/04/27 01:54:17;;;;;;;27.60;19.97;;;;;;;5.29;100.00;100530.13;5093838;28;20298;-59
2022/04/27 01:56:47;;;;;;;23.30;19.83;;;;;;;5.24;100.00;100532.78;5090985;28;20168;-58
2022/04/27 01:59:12;;;;;;;26.37;20.87;;;;;;;5.24;100.00;100531.97;5107302;28;20176;-58
2022/04/27 02:01:39;;;;;;;27.83;19.47;;;;;;;5.18;100.00;100525.31;5079906;28;20292;-59
2022/04/27 02:04:04;;;;;;;27.20;20.83;;;;;;;5.16;100.00;100538.09;5074513;28;20192;-59
2022/04/27 02:06:29;;;;;;;29.00;21.03;;;;;;;5.14;100.00;100539.84;5070668;28;20193;-59
2022/04/27 02:08:56;;;;;;;27.67;20.87;;;;;;;5.16;100.00;100538.09;5070984;28;20177;-58
2022/04/27 02:11:25;;;;;;;29.10;22.53;;;;;;;5.04;100.00;100540.13;5060252;28;20228;-60
2022/04/27 02:13:54;;;;;;;29.83;21.20;;;;;;;4.91;100.00;100548.06;5075812;28;20255;-58
2022/04/27 02:16:24;;;;;;;30.47;21.13;;;;;;;4.84;100.00;100549.09;5106479;28;20178;-58
2022/04/27 02:18:50;;;;;;;31.47;21.50;;;;;;;4.89;100.00;100554.06;5085944;28;20517;-58
2022/04/27 02:21:16;;;;;;;30.33;21.83;;;;;;;4.75;100.00;100562.03;5079771;28;20238;-58
2022/04/27 02:23:41;;;;;;;28.57;21.47;;;;;;;4.69;100.00;100561.31;5069440;28;20544;-58
2022/04/27 02:26:07;;;;;;;27.23;21.17;;;;;;;4.75;100.00;100562.88;5070409;28;20169;-57
2022/04/27 02:28:32;;;;;;;27.03;20.57;;;;;;;4.81;100.00;100561.88;5071166;28;20635;-58
2022/04/27 02:30:58;;;;;;;28.27;21.80;;;;;;;4.76;100.00;100573.91;5067866;28;20235;-59
2022/04/27 02:33:23;;;;;;;27.27;20.83;;;;;;;4.77;100.00;100565.38;5079737;28;20199;-59
2022/04/27 02:35:49;;;;;;;33.30;22.20;;;;;;;4.70;100.00;100567.22;5074133;28;20222;-58
2022/04/27 02:38:15;;;;;;;30.17;21.30;;;;;;;4.79;100.00;100571.28;5074066;28;20165;-58
2022/04/27 02:40:40;;;;;;;28.23;21.20;;;;;;;4.75;100.00;100580.72;5068746;28;20230;-58
2022/04/27 02:43:05;;;;;;;26.67;20.20;;;;;;;4.78;100.00;100577.25;5087513;28;20192;-59
2022/04/27 02:45:30;;;;;;;27.03;20.20;;;;;;;4.71;100.00;100573.16;5081114;28;20211;-58
2022/04/27 02:47:56;;;;;;;29.57;21.63;;;;;;;4.70;100.00;100577.41;5073825;28;20207;-57
2022/04/27 02:53:05;;;;;;;27.60;21.53;;;;;;;4.71;100.00;100579.09;5085058;28;20188;-59
2022/04/27 02:55:30;;;;;;;31.87;21.67;;;;;;;4.64;100.00;100575.00;5074272;28;20177;-57
2022/04/27 02:57:56;;;;;;;28.77;22.10;;;;;;;4.61;100.00;100575.09;5073845;28;20198;-58
2022/04/27 03:00:21;;;;;;;29.70;21.00;;;;;;;4.60;100.00;100581.06;5053679;28;20874;-58
2022/04/27 03:02:46;;;;;;;31.57;21.10;;;;;;;4.61;100.00;100585.28;5065429;28;20192;-58
2022/04/27 03:05:12;;;;;;;30.87;21.83;;;;;;;4.62;100.00;100586.97;5074005;28;20271;-58
2022/04/27 03:07:37;;;;;;;26.83;20.23;;;;;;;4.63;100.00;100586.09;5073029;28;20336;-58
2022/04/27 03:10:03;;;;;;;29.10;22.13;;;;;;;4.50;100.00;100585.50;5068829;28;20300;-59
2022/04/27 03:12:29;;;;;;;30.20;21.87;;;;;;;4.53;100.00;100586.28;5089051;28;20247;-58
2022/04/27 03:14:54;;;;;;;27.20;20.77;;;;;;;4.59;100.00;100589.56;5093835;28;20632;-59
2022/04/27 03:17:19;;;;;;;33.83;22.50;;;;;;;4.52;100.00;100593.97;5081528;28;20314;-59
2022/04/27 03:19:44;;;;;;;28.90;22.33;;;;;;;4.53;100.00;100593.91;5080623;28;20267;-58
2022/04/27 03:22:10;;;;;;;28.97;22.73;;;;;;;4.47;100.00;100590.69;5078991;28;20697;-59
2022/04/27 03:24:35;;;;;;;34.33;22.20;;;;;;;4.41;100.00;100588.25;5073542;28;20266;-58
2022/04/27 03:27:00;;;;;;;31.27;23.03;;;;;;;4.43;100.00;100589.03;5073334;28;20175;-58
2022/04/27 03:29:25;;;;;;;31.20;22.97;;;;;;;4.30;100.00;100588.47;5073651;28;20187;-58
2022/04/27 03:31:51;;;;;;;29.57;22.03;;;;;;;4.35;100.00;100594.31;5041794;28;20228;-58
2022/04/27 03:34:16;;;;;;;32.13;23.60;;;;;;;4.42;100.00;100595.88;5073350;28;20180;-57
2022/04/27 03:36:41;;;;;;;30.67;22.43;;;;;;;4.43;100.00;100594.16;5088498;28;20191;-59
2022/04/27 03:39:07;;;;;;;29.07;21.27;;;;;;;4.45;100.00;100602.59;5088814;28;20195;-58
2022/04/27 03:41:32;;;;;;;31.37;22.37;;;;;;;4.40;100.00;100599.31;5073549;28;20276;-59
2022/04/27 03:43:57;;;;;;;34.27;23.70;;;;;;;4.38;100.00;100601.03;5072990;28;20598;-58
2022/04/27 03:46:22;;;;;;;33.67;24.23;;;;;;;4.34;100.00;100602.81;5072712;28;20278;-58
2022/04/27 03:48:48;;;;;;;30.93;23.47;;;;;;;4.40;100.00;100609.50;5073209;28;20291;-58
2022/04/27 03:51:13;;;;;;;35.70;22.63;;;;;;;4.42;100.00;100611.16;5071957;28;20289;-58
2022/04/27 03:53:39;;;;;;;38.40;24.70;;;;;;;4.39;100.00;100608.69;5079460;28;20208;-59
2022/04/27 03:56:05;;;;;;;35.30;24.67;;;;;;;4.44;100.00;100606.88;5072676;28;20535;-58
2022/04/27 03:58:31;;;;;;;32.03;23.87;;;;;;;4.39;100.00;100613.78;5071540;28;20515;-57
2022/04/27 04:00:57;;;;;;;37.00;24.00;;;;;;;4.45;100.00;100608.56;5064752;28;20231;-59
2022/04/27 04:03:22;;;;;;;33.27;24.57;;;;;;;4.39;100.00;100612.91;5081685;28;20185;-57
2022/04/27 04:05:47;;;;;;;30.60;23.23;;;;;;;4.29;100.00;100608.03;5072369;28;20172;-57
2022/04/27 04:08:13;;;;;;;31.07;22.77;;;;;;;4.19;100.00;100619.25;5071779;28;20184;-59
2022/04/27 04:10:38;;;;;;;36.97;25.33;;;;;;;4.17;100.00;100626.09;5062146;28;20236;-58
2022/04/27 04:13:03;;;;;;;33.90;23.30;;;;;;;4.15;100.00;100623.56;5076512;28;20174;-59
2022/04/27 04:15:29;;;;;;;35.07;24.27;;;;;;;4.24;100.00;100620.00;5092762;28;20609;-57
2022/04/27 04:17:54;;;;;;;35.93;25.30;;;;;;;4.27;100.00;100622.50;5092264;28;20175;-59
2022/04/27 04:20:20;;;;;;;35.23;24.77;;;;;;;4.39;100.00;100629.06;5066993;28;20196;-59
2022/04/27 04:22:49;;;;;;;33.83;22.93;;;;;;;4.43;100.00;100640.00;5085560;28;20598;-58
2022/04/27 04:30:43;;;;;;;35.67;24.90;;;;;;;4.16;100.00;100644.78;5067529;28;20290;-59
2022/04/27 04:33:09;;;;;;;33.40;24.83;;;;;;;4.32;100.00;100647.88;5082795;28;20177;-58
2022/04/27 04:35:36;;;;;;;36.00;24.97;;;;;;;4.45;100.00;100654.41;5072201;28;20190;-59
2022/04/27 04:38:01;;;;;;;34.93;23.73;;;;;;;4.52;100.00;100657.66;5092040;28;20197;-58
2022/04/27 04:40:26;;;;;;;37.17;25.57;;;;;;;4.60;100.00;100655.81;5073159;28;20227;-58
2022/04/27 04:42:52;;;;;;;32.43;24.27;;;;;;;4.59;100.00;100664.31;5084608;28;20171;-59
2022/04/27 04:45:18;;;;;;;34.10;24.40;;;;;;;4.71;100.00;100663.19;5072462;28;20188;-58
2022/04/27 04:47:43;;;;;;;37.90;23.97;;;;;;;4.77;100.00;100668.16;5070007;28;20183;-58
2022/04/27 04:50:10;;;;;;;35.53;25.67;;;;;;;4.89;100.00;100669.63;5062967;27;20179;-59
2022/04/27 04:52:36;;;;;;;37.20;25.23;;;;;;;4.83;100.00;100670.59;5070909;28;20180;-58
2022/04/27 04:55:01;;;;;;;35.40;24.67;;;;;;;4.93;100.00;100660.19;5072424;28;20233;-58
2022/04/27 04:57:26;;;;;;;34.03;24.33;;;;;;;5.07;100.00;100664.97;5070729;28;20231;-58
2022/04/27 04:59:52;;;;;;;33.73;25.03;;;;;;;5.10;100.00;100668.31;5072031;28;20169;-57
2022/04/27 05:02:17;;;;;;;35.17;26.00;;;;;;;5.22;100.00;100664.66;5045178;28;20216;-59
2022/04/27 05:04:43;;;;;;;40.00;26.80;;;;;;;5.36;100.00;100671.13;5072113;28;20647;-59
2022/04/27 05:07:08;;;;;;;35.07;24.00;;;;;;;5.46;100.00;100675.97;5071335;28;20681;-59
2022/04/27 05:09:34;;;;;;;32.83;23.93;;;;;;;5.56;100.00;100678.31;5071475;28;20606;-59
2022/04/27 05:11:59;;;;;;;32.10;23.97;;;;;;;5.68;100.00;100672.91;5059764;28;20279;-58
2022/04/27 05:14:24;;;;;;;35.07;25.03;;;;;;;5.59;100.00;100678.22;5087725;28;20194;-58
2022/04/27 05:16:49;;;;;;;35.13;25.40;;;;;;;5.63;100.00;100682.38;5091283;28;20183;-59
2022/04/27 05:19:15;;;;;;;35.10;25.37;;;;;;;5.86;100.00;100689.47;5083071;28;20280;-59
2022/04/27 05:21:40;;;;;;;36.43;25.47;;;;;;;6.08;100.00;100687.22;5074276;28;20232;-58
2022/04/27 05:24:05;;;;;;;33.33;25.77;;;;;;;6.25;100.00;100691.03;5074434;28;20173;-58
2022/04/27 05:26:31;;;;;;;34.07;25.50;;;;;;;6.39;100.00;100695.78;5071329;28;20303;-60
2022/04/27 05:31:55;;;;;;;38.03;26.40;;;;;;;6.56;100.00;100687.63;5073811;28;20270;-60
2022/04/27 05:34:25;;;;;;;36.80;26.03;;;;;;;6.72;100.00;100690.59;5073077;28;20177;-59
2022/04/27 05:36:51;;;;;;;36.23;26.83;;;;;;;6.92;100.00;100692.56;5082615;28;20209;-58
2022/04/27 05:39:21;;;;;;;35.80;26.23;;;;;;;7.06;100.00;100698.09;5071476;28;20260;-58
2022/04/27 05:41:49;;;;;;;37.10;25.97;;;;;;;7.24;100.00;100698.41;5075645;28;20655;-59
2022/04/27 05:44:15;;;;;;;38.70;28.97;;;;;;;7.45;100.00;100704.56;5073738;28;20550;-58
2022/04/27 05:46:40;;;;;;;36.63;27.83;;;;;;;7.61;100.00;100710.06;5071360;28;20182;-58
2022/04/27 05:49:05;;;;;;;39.63;28.87;;;;;;;7.72;100.00;100704.59;5071948;28;20603;-59
2022/04/27 05:51:31;;;;;;;39.33;28.87;;;;;;;7.90;100.00;100700.56;5073774;28;20227;-58
2022/04/27 05:53:56;;;;;;;33.77;27.77;;;;;;;8.02;100.00;100710.38;5075920;28;20180;-59
2022/04/27 05:56:23;;;;;;;33.67;27.80;;;;;;;7.99;100.00;100707.94;5070820;28;20287;-58
2022/04/27 05:58:49;;;;;;;33.20;28.17;;;;;;;8.09;100.00;100713.59;5070417;28;20180;-58
2022/04/27 06:01:14;;;;;;;35.23;28.50;;;;;;;8.09;100.00;100716.16;5071540;28;20369;-58
2022/04/27 06:03:40;;;;;;;31.03;26.73;;;;;;;8.08;100.00;100724.72;5076732;28;20552;-60
2022/04/27 06:06:05;;;;;;;31.10;27.60;;;;;;;8.08;100.00;100729.84;5085962;28;20620;-59
2022/04/27 06:08:30;;;;;;;28.80;24.93;;;;;;;8.22;100.00;100722.53;5074067;28;20198;-59
2022/04/27 06:10:56;;;;;;;30.43;26.93;;;;;;;8.39;100.00;100723.66;5085702;28;20268;-59
2022/04/27 06:13:21;;;;;;;29.73;26.00;;;;;;;8.41;100.00;100724.47;5102188;28;20171;-59
2022/04/27 06:15:46;;;;;;;27.87;24.97;;;;;;;8.46;100.00;100729.41;5091833;28;20184;-59
2022/04/27 06:18:12;;;;;;;28.87;25.87;;;;;;;8.62;100.00;100730.56;5094103;28;20656;-59
2022/04/27 06:20:38;;;;;;;29.17;26.20;;;;;;;8.76;100.00;100737.75;5083448;28;20235;-59
2022/04/27 06:23:03;;;;;;;26.60;23.20;;;;;;;8.96;100.00;100734.44;5093349;28;20206;-58
2022/04/27 06:25:30;;;;;;;25.80;22.57;;;;;;;9.24;100.00;100742.81;5092684;28;20275;-60
2022/04/27 06:27:55;;;;;;;24.37;21.43;;;;;;;9.06;100.00;100739.25;5084704;28;20177;-59
2022/04/27 06:30:21;;;;;;;22.80;20.17;;;;;;;9.47;100.00;100735.03;5083724;28;20298;-58
2022/04/27 06:32:46;;;;;;;22.57;19.97;;;;;;;10.08;100.00;100735.19;5076949;28;20211;-57
2022/04/27 06:35:13;;;;;;;21.60;19.50;;;;;;;11.16;100.00;100734.75;5090006;28;20610;-57
2022/04/27 06:37:41;;;;;;;19.63;17.53;;;;;;;12.28;93.48;100723.28;5094269;28;20233;-59
2022/04/27 06:40:08;;;;;;;20.10;18.10;;;;;;;12.98;80.92;100733.34;5087053;28;20190;-59
2022/04/27 06:42:34;;;;;;;17.50;15.80;;;;;;;14.50;72.79;100742.81;5077278;28;20191;-58
2022/04/27 06:45:04;;;;;;;16.27;14.60;;;;;;;15.14;63.17;100743.19;5076869;28;20263;-58
2022/04/27 06:47:30;;;;;;;14.53;13.03;;;;;;;17.14;55.22;100740.22;5089072;28;20622;-59
2022/04/27 06:49:55;;;;;;;13.87;12.53;;;;;;;18.94;50.65;100745.84;5089771;28;20173;-58
2022/04/27 06:52:21;;;;;;;14.93;13.50;;;;;;;18.89;45.83;100747.94;5079196;28;20220;-59
2022/04/27 06:54:46;;;;;;;14.00;12.57;;;;;;;20.03;44.05;100753.50;5074260;28;20527;-59
2022/04/27 06:57:11;;;;;;;14.40;12.90;;;;;;;21.01;41.79;100759.13;5091516;28;20180;-59
2022/04/27 06:59:37;;;;;;;13.07;11.77;;;;;;;22.12;39.27;100766.59;5073702;28;20650;-59
2022/04/27 07:02:03;;;;;;;13.13;11.97;;;;;;;22.07;38.35;100769.66;5053717;27;20262;-58
2022/04/27 07:04:31;;;;;;;14.07;12.53;;;;;;;21.95;37.99;100776.03;5071952;28;20177;-60
2022/04/27 07:06:56;;;;;;;14.80;13.43;;;;;;;21.18;38.62;100775.09;5088824;28;20223;-58
2022/04/27 07:09:22;;;;;;;13.57;12.30;;;;;;;22.69;37.49;100786.69;5073388;28;20209;-59
2022/04/27 07:11:47;;;;;;;13.80;12.47;;;;;;;23.85;35.28;100778.91;5076728;28;20649;-59
2022/04/27 07:14:16;;;;;;;12.82;11.60;;;;;;;24.05;34.74;100791.03;5076269;28;20193;-58
2022/04/27 07:16:44;;;;;;;13.68;12.57;;;;;;;20.83;38.47;100790.31;5081817;28;20223;-59
2022/04/27 07:19:10;;;;;;;13.43;12.05;;;;;;;22.94;36.92;100790.38;5072375;28;20180;-58
2022/04/27 07:21:35;;;;;;;12.85;11.57;;;;;;;22.47;36.60;100787.88;5061907;28;20248;-58
2022/04/27 07:24:04;;;;;;;15.18;13.35;;;;;;;22.03;37.24;100785.78;5072718;28;20326;-59
2022/04/27 07:26:30;;;;;;;12.77;11.57;;;;;;;22.62;36.34;100791.66;5072711;28;20552;-59
2022/04/27 07:28:55;;;;;;;13.80;12.70;;;;;;;20.95;39.64;100794.47;5088616;28;20180;-58
2022/04/27 07:31:21;;;;;;;13.60;12.40;;;;;;;21.40;38.92;100798.38;5042135;28;20217;-58
2022/04/27 07:33:47;;;;;;;13.97;12.80;;;;;;;19.67;42.12;100797.38;5074397;28;20626;-59
2022/04/27 07:36:12;;;;;;;14.70;12.73;;;;;;;20.50;40.60;100794.03;5077516;28;20173;-58
2022/04/27 07:38:38;;;;;;;13.40;12.10;;;;;;;21.14;39.01;100798.09;5072638;28;20203;-59
2022/04/27 07:41:04;;;;;;;14.00;12.70;;;;;;;21.68;38.23;100795.94;5076541;28;20300;-66
2022/04/27 07:43:29;;;;;;;14.87;13.37;;;;;;;22.07;36.80;100802.91;5100808;28;20211;-63
2022/04/27 07:45:54;;;;;;;14.17;12.80;;;;;;;21.84;36.77;100797.94;5090261;28;20176;-62
2022/04/27 07:48:20;;;;;;;14.00;12.70;;;;;;;22.20;36.26;100806.03;5092798;28;20399;-61
2022/04/27 07:50:45;;;;;;;12.60;11.50;;;;;;;20.87;38.76;100811.78;5083202;28;20238;-60
2022/04/27 07:53:10;;;;;;;13.17;11.93;;;;;;;20.64;39.86;100818.03;5092274;28;20187;-62
2022/04/27 07:55:35;;;;;;;12.97;11.80;;;;;;;20.84;38.81;100819.88;5092904;28;20203;-60
2022/04/27 07:58:01;;;;;;;13.53;12.23;;;;;;;21.74;37.50;100815.47;5092466;28;20710;-61
2022/04/27 08:00:26;;;;;;;12.13;11.13;;;;;;;20.09;40.36;100820.91;5079659;28;20235;-61
2022/04/27 08:02:51;;;;;;;15.40;12.10;;;;;;;19.01;42.95;100833.03;5091687;28;20228;-61
2022/04/27 08:05:17;;;;;;;12.57;11.23;;;;;;;20.09;41.33;100831.34;5089667;28;20172;-61
2022/04/27 08:07:44;;;;;;;11.97;10.97;;;;;;;20.11;41.30;100828.63;5091929;28;20259;-62
2022/04/27 08:10:12;;;;;;;13.60;12.23;;;;;;;19.68;43.08;100831.19;5081285;28;20238;-62
2022/04/27 08:12:39;;;;;;;13.03;11.63;;;;;;;19.91;41.55;100828.50;5090845;28;20229;-62
2022/04/27 08:15:05;;;;;;;13.32;12.13;;;;;;;20.95;39.27;100833.69;5087783;28;20418;-61
2022/04/27 08:17:30;;;;;;;13.10;11.03;;;;;;;20.46;39.88;100836.09;5087855;28;20272;-63
2022/04/27 08:21:13;;;;;;;12.77;11.57;;;;;;;20.37;41.28;100834.25;5077995;28;20691;-60
2022/04/27 08:22:41;;;;;;;12.53;11.43;;;;;;;19.24;43.20;100845.19;5076123;28;20268;-61
2022/04/27 08:25:06;;;;;;;13.37;12.07;;;;;;;20.44;40.87;100837.19;5092755;28;20560;-61
2022/04/27 08:27:32;;;;;;;11.53;10.43;;;;;;;21.15;39.55;100848.59;5091132;28;20168;-61
2022/04/27 08:29:57;;;;;;;13.07;11.77;;;;;;;20.17;41.50;100838.56;5079796;28;20271;-62
2022/04/27 08:32:22;;;;;;;12.63;11.53;;;;;;;20.43;40.58;100848.59;5079501;28;20288;-61
2022/04/27 08:34:50;;;;;;;12.07;10.33;;;;;;;20.91;40.85;100853.25;5086436;28;20172;-61
2022/04/27 08:37:16;;;;;;;12.17;10.97;;;;;;;22.04;39.11;100852.94;5072161;28;20173;-61
2022/04/27 08:39:41;;;;;;;14.73;11.03;;;;;;;20.00;41.84;100847.78;5090780;28;20290;-60
2022/04/27 08:42:08;;;;;;;12.33;11.17;;;;;;;18.84;43.59;100851.72;5080539;28;20345;-60
2022/04/27 08:44:35;;;;;;;13.10;11.47;;;;;;;18.12;46.47;100845.84;5087979;28;20180;-62
2022/04/27 08:47:02;;;;;;;12.20;10.90;;;;;;;19.11;44.43;100860.97;5080261;28;20188;-61
2022/04/27 08:49:33;;;;;;;11.93;10.83;;;;;;;18.03;45.80;100857.75;5081866;28;20168;-61
2022/04/27 08:52:00;;;;;;;12.07;10.87;;;;;;;16.51;51.53;100851.94;5083280;28;20737;-61
2022/04/27 08:54:27;;;;;;;13.03;11.83;;;;;;;17.07;50.82;100858.56;5078679;28;20247;-62
2022/04/27 08:56:53;;;;;;;13.23;11.93;;;;;;;18.13;48.62;100855.31;5086585;28;20187;-65
2022/04/27 08:59:18;;;;;;;13.37;12.17;;;;;;;18.40;47.86;100846.38;5072398;28;20182;-64
2022/04/27 09:01:44;;;;;;;12.80;11.53;;;;;;;20.25;44.11;100843.94;5061655;28;20224;-66
2022/04/27 09:04:15;;;;;;;13.43;11.97;;;;;;;21.12;41.15;100849.69;5089160;28;20176;-64
2022/04/27 09:06:41;;;;;;;12.30;11.00;;;;;;;22.49;37.95;100849.69;5090257;28;20257;-65
2022/04/27 09:09:13;;;;;;;12.70;11.60;;;;;;;21.63;39.03;100852.28;5090427;28;20204;-64
2022/04/27 09:11:39;;;;;;;11.93;10.60;;;;;;;20.89;40.66;100844.69;5078961;28;20231;-64
2022/04/27 09:14:08;;;;;;;12.87;10.83;;;;;;;21.97;38.08;100846.59;5073007;28;20188;-63
2022/04/27 09:22:10;;;;;;;11.33;9.80;;;;;;;22.11;37.16;100851.41;5077431;28;20382;-63
2022/04/27 09:24:53;;;;;;;11.57;10.47;;;;;;;20.81;37.91;100860.19;5096627;28;20271;-64
2022/04/27 09:27:25;;;;;;;11.23;10.17;;;;;;;20.35;39.77;100861.47;5077653;28;20195;-63
2022/04/27 09:30:02;;;;;;;12.23;10.20;;;;;;;21.26;39.13;100858.94;5075965;28;20176;-64
2022/04/27 09:32:28;;;;;;;12.23;10.43;;;;;;;21.58;38.11;100852.69;5055808;28;20329;-65
2022/04/27 09:34:55;;;;;;;11.57;9.87;;;;;;;21.83;37.34;100864.41;5090185;28;20661;-65
2022/04/27 09:37:24;;;;;;;12.17;11.00;;;;;;;20.24;39.50;100854.53;5089217;28;20263;-64
2022/04/27 09:40:19;;;;;;;11.80;10.80;;;;;;;20.76;38.46;100858.00;5089679;28;20187;-64
2022/04/27 09:42:46;;;;;;;11.47;10.33;;;;;;;21.04;38.99;100857.41;5005145;28;20221;-64
2022/04/27 09:45:18;;;;;;;10.37;9.37;;;;;;;22.20;37.08;100854.97;5053262;28;20209;-65
2022/04/27 09:47:48;;;;;;;11.30;10.03;;;;;;;21.20;37.95;100854.25;5036296;28;20304;-65
2022/04/27 09:50:15;;;;;;;11.97;10.60;;;;;;;21.25;39.05;100859.94;5020745;28;20185;-67
2022/04/27 09:52:41;;;;;;;11.27;10.07;;;;;;;21.68;38.34;100858.78;5036164;28;20719;-58
2022/04/27 09:55:07;;;;;;;11.07;10.07;;;;;;;22.06;37.89;100853.63;5052209;28;20193;-58
2022/04/27 09:57:38;;;;;;;10.10;9.20;;;;;;;21.69;37.07;100859.59;5051651;28;20591;-59
2022/04/27 10:00:04;;;;;;;10.67;9.57;;;;;;;20.28;39.97;100858.53;5045038;28;20280;-61
2022/04/27 10:02:31;;;;;;;11.43;10.20;;;;;;;18.78;42.08;100866.06;5051508;28;20271;-57
2022/04/27 10:04:59;;;;;;;12.43;10.20;;;;;;;19.70;40.97;100857.16;5052200;28;20223;-58
2022/04/27 10:07:25;;;;;;;12.60;11.43;;;;;;;18.59;43.59;100858.00;5051003;28;20452;-58
2022/04/27 10:09:52;;;;;;;11.37;10.27;;;;;;;19.97;40.98;100848.88;5051717;28;20237;-59
2022/04/27 10:12:17;;;;;;;10.83;9.73;;;;;;;20.26;38.97;100857.84;5022714;28;20352;-59
2022/04/27 10:14:43;;;;;;;11.63;10.40;;;;;;;20.76;38.71;100851.94;5052546;28;20181;-59
2022/04/27 10:17:11;;;;;;;12.60;11.30;;;;;;;20.43;39.08;100857.25;5035516;28;20240;-59
2022/04/27 10:19:42;;;;;;;11.70;10.50;;;;;;;21.70;36.98;100856.00;5079816;28;20191;-58
2022/04/27 10:22:27;;;;;;;11.77;10.20;;;;;;;22.41;36.13;100854.81;5083301;28;20586;-57
2022/04/27 10:24:55;;;;;;;11.27;10.10;;;;;;;23.76;34.31;100848.09;5093152;28;20610;-58
2022/04/27 10:27:33;;;;;;;12.10;10.80;;;;;;;23.14;35.55;100859.31;5092643;28;20842;-59
2022/04/27 10:30:00;;;;;;;10.13;9.23;;;;;;;23.19;35.17;100853.66;5093969;28;20172;-64
2022/04/27 10:32:44;;;;;;;12.98;10.13;;;;;;;22.64;34.89;100852.66;5083320;28;20705;-63
2022/04/27 10:35:14;;;;;;;9.40;8.60;;;;;;;23.66;35.32;100850.00;5093649;28;20186;-63
2022/04/27 10:37:44;;;;;;;9.73;8.77;;;;;;;23.07;34.50;100853.03;5094310;28;20173;-63
2022/04/27 10:40:40;;;;;;;10.82;9.38;;;;;;;20.55;37.72;100851.94;5084446;28;20200;-65
2022/04/27 10:43:08;;;;;;;9.87;8.97;;;;;;;18.43;42.73;100853.97;5082072;28;20180;-64
2022/04/27 10:45:38;;;;;;;11.70;10.70;;;;;;;17.43;45.71;100839.50;5090496;28;20652;-64
2022/04/27 10:48:15;;;;;;;10.60;9.60;;;;;;;17.36;46.84;100837.47;5076369;28;20511;-67
2022/04/27 10:51:04;;;;;;;10.13;9.10;;;;;;;17.19;48.50;100842.09;5084559;28;20832;-63
2022/04/27 10:53:40;;;;;;;10.93;9.73;;;;;;;16.35;48.17;100846.94;5102628;28;20218;-67
2022/04/27 10:56:22;;;;;;;13.97;9.57;;;;;;;16.06;50.39;100841.06;5091958;28;20179;-59
2022/04/27 10:58:48;;;;;;;9.93;8.93;;;;;;;15.80;51.02;100838.38;5092960;28;20234;-58
2022/04/27 11:01:23;;;;;;;9.77;8.80;;;;;;;15.72;51.26;100832.88;5062489;28;20746;-59
2022/04/27 11:03:57;;;;;;;9.33;8.10;;;;;;;15.99;50.26;100840.66;5080061;28;20236;-59
2022/04/27 11:06:23;;;;;;;8.97;8.03;;;;;;;15.79;49.33;100828.97;5109268;28;20199;-58
2022/04/27 11:09:13;;;;;;;8.17;6.63;;;;;;;15.90;49.06;100833.47;5091975;28;20191;-58
2022/04/27 11:11:58;;;;;;;9.13;7.83;;;;;;;15.63;48.91;100829.13;5085530;28;20262;-58
2022/04/27 11:14:29;;;;;;;9.23;7.30;;;;;;;15.57;47.71;100824.34;5080538;28;20308;-58
2022/04/27 11:16:55;;;;;;;9.90;8.23;;;;;;;15.57;49.67;100824.34;5064274;28;20686;-60
2022/04/27 11:19:20;;;;;;;10.10;8.30;;;;;;;15.73;49.87;100824.19;5076372;28;20235;-60
2022/04/27 11:21:48;;;;;;;10.50;7.77;;;;;;;16.00;49.09;100821.56;5088622;28;20653;-60
2022/04/27 11:24:15;;;;;;;10.50;7.47;;;;;;;16.33;47.71;100833.22;5091524;28;20188;-60
2022/04/27 11:26:43;;;;;;;9.10;8.20;;;;;;;16.16;47.33;100826.56;5091056;28;20190;-59